createdAt,value
2018-01-31T01:52:20.408Z,1013.97
2018-01-31T01:52:23.986Z,1009.26
2018-01-31T01:53:23.992Z,1009.27
2018-01-31T01:54:23.991Z,1009.23
2018-01-31T01:55:23.992Z,1009.25
2018-01-31T01:56:23.993Z,1009.24
2018-01-31T01:57:23.995Z,1009.21
2018-01-31T01:58:23.999Z,1009.17
2018-01-31T01:59:23.999Z,1009.16
2018-01-31T02:00:24.002Z,1009.16
2018-01-31T02:01:24.010Z,1009.09
2018-01-31T02:02:24.079Z,1009.07
2018-01-31T02:03:24.048Z,1009.05
2018-01-31T02:04:24.014Z,1009.02
2018-01-31T02:05:24.073Z,1008.99
2018-01-31T02:06:24.019Z,1008.96
2018-01-31T02:07:24.019Z,1008.87
2018-01-31T02:08:24.023Z,1008.86
2018-01-31T02:09:24.026Z,1008.79
2018-01-31T02:10:24.089Z,1008.75
2018-01-31T02:11:24.033Z,1008.71
2018-01-31T02:12:24.040Z,1008.69
2018-01-31T02:13:24.061Z,1008.65
2018-01-31T02:14:24.034Z,1008.64
2018-01-31T02:15:24.043Z,1008.58
2018-01-31T02:16:24.047Z,1008.54
2018-01-31T02:17:24.043Z,1008.48
2018-01-31T02:18:24.047Z,1008.44
2018-01-31T02:19:24.049Z,1008.35
2018-01-31T02:20:24.055Z,1008.38
2018-01-31T02:21:24.054Z,1008.35
2018-01-31T02:22:24.054Z,1008.34
2018-01-31T02:23:24.072Z,1008.28
2018-01-31T02:24:24.070Z,1008.28
2018-01-31T02:25:24.063Z,1008.29
2018-01-31T02:26:24.066Z,1008.18
2018-01-31T02:27:24.077Z,1008.14
2018-01-31T02:28:24.071Z,1008.12
2018-01-31T02:29:24.077Z,1008.12
2018-01-31T02:30:24.115Z,1008.08
2018-01-31T02:31:24.079Z,1008.06
2018-01-31T02:32:24.084Z,1008.07
2018-01-31T02:33:24.084Z,1008.03
2018-01-31T02:34:24.090Z,1008.01
2018-01-31T02:35:24.091Z,1007.98
2018-01-31T02:36:24.091Z,1007.92
2018-01-31T02:37:24.093Z,1007.90
2018-01-31T02:38:24.099Z,1007.89
2018-01-31T02:39:24.100Z,1007.83
2018-01-31T02:40:24.103Z,1007.82
2018-01-31T02:41:24.105Z,1007.75
2018-01-31T02:42:24.109Z,1007.71
2018-01-31T02:43:24.106Z,1007.72
2018-01-31T02:44:24.110Z,1007.67
2018-01-31T02:45:24.113Z,1007.65
2018-01-31T02:46:24.115Z,1007.62
2018-01-31T02:47:24.121Z,1007.53
2018-01-31T02:48:24.120Z,1007.48
2018-01-31T02:49:24.126Z,1007.47
2018-01-31T02:50:24.122Z,1007.46
2018-01-31T02:51:24.125Z,1007.44
2018-01-31T02:52:24.126Z,1007.43
2018-01-31T02:53:24.139Z,1007.37
2018-01-31T02:54:24.142Z,1007.37
2018-01-31T02:55:24.140Z,1007.30
2018-01-31T02:56:24.139Z,1007.32
2018-01-31T02:57:24.144Z,1007.25
2018-01-31T02:58:24.144Z,1007.26
2018-01-31T02:59:24.149Z,1007.21
2018-01-31T03:00:24.149Z,1007.11
2018-01-31T03:01:24.148Z,1007.14
2018-01-31T03:02:24.152Z,1007.11
2018-01-31T03:03:24.155Z,1007.05
2018-01-31T03:04:24.158Z,1007.05
2018-01-31T03:05:24.161Z,1007.04
2018-01-31T03:06:24.173Z,1007.00
2018-01-31T03:07:24.168Z,1006.92
2018-01-31T03:08:24.172Z,1006.91
2018-01-31T03:09:24.175Z,1006.81
2018-01-31T03:10:24.172Z,1006.77
2018-01-31T03:11:24.178Z,1006.71
2018-01-31T03:12:24.176Z,1006.65
2018-01-31T03:13:24.183Z,1006.65
2018-01-31T03:14:24.181Z,1006.60
2018-01-31T03:15:24.185Z,1006.59
2018-01-31T03:16:24.192Z,1006.52
2018-01-31T03:17:24.195Z,1006.51
2018-01-31T03:18:24.191Z,1006.44
2018-01-31T03:19:24.202Z,1006.46
2018-01-31T03:20:24.207Z,1006.36
2018-01-31T03:21:24.198Z,1006.34
2018-01-31T03:22:24.199Z,1006.32
2018-01-31T03:23:24.206Z,1006.29
2018-01-31T03:24:24.215Z,1006.25
2018-01-31T03:25:24.213Z,1006.24
2018-01-31T03:26:24.217Z,1006.24
2018-01-31T03:27:24.213Z,1006.28
2018-01-31T03:28:24.218Z,1006.20
2018-01-31T03:29:24.227Z,1006.16
2018-01-31T03:30:24.225Z,1006.16
2018-01-31T03:31:24.226Z,1006.12
2018-01-31T03:32:24.226Z,1006.03
2018-01-31T03:33:24.234Z,1006.11
2018-01-31T03:34:24.236Z,1006.05
2018-01-31T03:35:24.244Z,1006.00
2018-01-31T03:36:24.241Z,1005.97
2018-01-31T03:37:24.245Z,1005.94
2018-01-31T03:38:24.241Z,1005.96
2018-01-31T03:39:24.248Z,1005.93
2018-01-31T03:40:24.246Z,1005.90
2018-01-31T03:41:24.253Z,1005.91
2018-01-31T03:42:25.126Z,1005.83
2018-01-31T03:43:24.257Z,1005.81
2018-01-31T03:44:24.260Z,1005.84
2018-01-31T03:45:24.263Z,1005.80
2018-01-31T03:46:24.267Z,1005.73
2018-01-31T03:47:24.269Z,1005.73
2018-01-31T03:48:24.276Z,1005.72
2018-01-31T03:49:24.274Z,1005.70
2018-01-31T03:50:24.277Z,1005.63
2018-01-31T03:51:24.278Z,1005.59
2018-01-31T03:52:24.281Z,1005.59
2018-01-31T03:53:24.307Z,1005.53
2018-01-31T03:54:24.288Z,1005.54
2018-01-31T03:55:24.286Z,1005.52
2018-01-31T03:56:24.293Z,1005.48
2018-01-31T03:57:24.291Z,1005.45
2018-01-31T03:58:24.302Z,1005.44
2018-01-31T03:59:24.297Z,1005.42
2018-01-31T04:00:24.305Z,1005.37
2018-01-31T04:01:24.309Z,1005.38
2018-01-31T04:02:25.130Z,1005.30
2018-01-31T04:03:24.307Z,1005.34
2018-01-31T04:04:24.313Z,1005.31
2018-01-31T04:05:24.313Z,1005.26
2018-01-31T04:06:24.314Z,1005.25
2018-01-31T04:07:24.325Z,1005.26
2018-01-31T04:08:24.326Z,1005.23
2018-01-31T04:09:24.436Z,1005.20
2018-01-31T04:10:24.614Z,1005.18
2018-01-31T04:11:24.334Z,1005.18
2018-01-31T04:12:24.335Z,1005.17
2018-01-31T04:13:24.337Z,1005.13
2018-01-31T04:14:24.338Z,1005.10
2018-01-31T04:15:24.344Z,1005.11
2018-01-31T04:16:24.348Z,1005.08
2018-01-31T04:17:24.345Z,1005.07
2018-01-31T04:18:24.355Z,1005.03
2018-01-31T04:19:24.353Z,1005.01
2018-01-31T04:20:24.353Z,1005.01
2018-01-31T04:21:24.360Z,1004.96
2018-01-31T04:22:25.139Z,1004.93
2018-01-31T04:23:24.362Z,1004.91
2018-01-31T04:24:24.364Z,1004.94
2018-01-31T04:25:24.373Z,1004.90
2018-01-31T04:26:24.372Z,1004.88
2018-01-31T04:27:24.372Z,1004.84
2018-01-31T04:28:24.378Z,1004.80
2018-01-31T04:29:24.383Z,1004.74
2018-01-31T04:30:24.383Z,1004.69
2018-01-31T04:31:24.384Z,1004.69
2018-01-31T04:32:24.383Z,1004.68
2018-01-31T04:33:24.393Z,1004.65
2018-01-31T04:34:24.394Z,1004.61
2018-01-31T04:35:24.394Z,1004.64
2018-01-31T04:36:24.402Z,1004.57
2018-01-31T04:37:24.402Z,1004.59
2018-01-31T04:38:24.407Z,1004.54
2018-01-31T04:39:24.404Z,1004.50
2018-01-31T04:40:24.413Z,1004.49
2018-01-31T04:41:24.412Z,1004.45
2018-01-31T04:42:25.143Z,1004.46
2018-01-31T04:43:24.414Z,1004.37
2018-01-31T04:44:24.423Z,1004.48
2018-01-31T04:45:24.422Z,1004.45
2018-01-31T04:46:24.426Z,1004.38
2018-01-31T04:47:24.431Z,1004.37
2018-01-31T04:48:24.434Z,1004.33
2018-01-31T04:49:24.435Z,1004.34
2018-01-31T04:50:24.441Z,1004.35
2018-01-31T04:51:24.439Z,1004.32
2018-01-31T04:52:24.441Z,1004.30
2018-01-31T04:53:24.452Z,1004.30
2018-01-31T04:54:24.446Z,1004.24
2018-01-31T04:55:24.454Z,1004.26
2018-01-31T04:56:24.454Z,1004.21
2018-01-31T04:57:24.460Z,1004.18
2018-01-31T04:58:24.459Z,1004.21
2018-01-31T04:59:24.466Z,1004.15
2018-01-31T05:00:24.470Z,1004.16
2018-01-31T05:01:24.469Z,1004.18
2018-01-31T05:02:24.471Z,1004.17
2018-01-31T05:03:24.477Z,1004.13
2018-01-31T05:04:24.537Z,1004.10
2018-01-31T05:05:24.483Z,1004.08
2018-01-31T05:06:24.482Z,1004.04
2018-01-31T05:07:24.489Z,1004.03
2018-01-31T05:08:24.500Z,1004.02
2018-01-31T05:09:24.497Z,1003.96
2018-01-31T05:10:24.491Z,1004.01
2018-01-31T05:11:24.500Z,1003.99
2018-01-31T05:12:24.505Z,1003.95
2018-01-31T05:13:24.503Z,1003.95
2018-01-31T05:14:24.505Z,1003.93
2018-01-31T05:15:24.512Z,1003.95
2018-01-31T05:16:24.512Z,1003.88
2018-01-31T05:17:24.518Z,1003.93
2018-01-31T05:18:24.519Z,1003.90
2018-01-31T05:19:24.525Z,1003.85
2018-01-31T05:20:24.523Z,1003.85
2018-01-31T05:21:24.528Z,1003.89
2018-01-31T05:22:24.531Z,1003.83
2018-01-31T05:23:24.535Z,1003.81
2018-01-31T05:24:24.539Z,1003.78
2018-01-31T05:25:24.543Z,1003.76
2018-01-31T05:26:24.542Z,1003.71
2018-01-31T05:27:24.547Z,1003.71
2018-01-31T05:28:24.549Z,1003.64
2018-01-31T05:29:24.554Z,1003.63
2018-01-31T05:30:24.555Z,1003.63
2018-01-31T05:31:24.555Z,1003.61
2018-01-31T05:32:24.561Z,1003.54
2018-01-31T05:33:24.563Z,1003.58
2018-01-31T05:34:24.566Z,1003.55
2018-01-31T05:35:24.572Z,1003.51
2018-01-31T05:36:24.576Z,1003.49
2018-01-31T05:37:24.578Z,1003.52
2018-01-31T05:38:24.577Z,1003.48
2018-01-31T05:39:24.590Z,1003.43
2018-01-31T05:40:24.594Z,1003.45
2018-01-31T05:41:24.590Z,1003.42
2018-01-31T05:42:24.595Z,1003.43
2018-01-31T05:43:24.596Z,1003.33
2018-01-31T05:44:24.602Z,1003.36
2018-01-31T05:45:24.601Z,1003.33
2018-01-31T05:46:24.651Z,1003.35
2018-01-31T05:47:24.608Z,1003.27
2018-01-31T05:48:24.616Z,1003.32
2018-01-31T05:49:24.614Z,1003.28
2018-01-31T05:50:24.620Z,1003.24
2018-01-31T05:51:24.627Z,1003.27
2018-01-31T05:52:24.628Z,1003.25
2018-01-31T05:53:24.634Z,1003.21
2018-01-31T05:54:24.632Z,1003.22
2018-01-31T05:55:24.638Z,1003.19
2018-01-31T05:56:24.943Z,1003.22
2018-01-31T05:57:25.829Z,1003.16
2018-01-31T05:58:24.645Z,1003.22
2018-01-31T05:59:24.653Z,1003.22
2018-01-31T06:00:24.651Z,1003.13
2018-01-31T06:01:24.740Z,1003.17
2018-01-31T06:02:24.707Z,1003.08
2018-01-31T06:03:24.693Z,1003.04
2018-01-31T06:04:24.667Z,1003.11
2018-01-31T06:05:24.672Z,1003.07
2018-01-31T06:06:24.672Z,1003.03
2018-01-31T06:07:24.672Z,1002.97
2018-01-31T06:08:24.682Z,1002.99
2018-01-31T06:09:24.687Z,1002.95
2018-01-31T06:10:24.687Z,1002.97
2018-01-31T06:11:24.689Z,1002.89
2018-01-31T06:12:24.691Z,1002.88
2018-01-31T06:13:24.706Z,1002.88
2018-01-31T06:14:24.704Z,1002.86
2018-01-31T06:15:24.701Z,1002.80
2018-01-31T06:16:24.704Z,1002.89
2018-01-31T06:17:24.716Z,1002.86
2018-01-31T06:18:24.715Z,1002.85
2018-01-31T06:19:24.716Z,1002.77
2018-01-31T06:20:24.726Z,1002.78
2018-01-31T06:21:24.725Z,1002.80
2018-01-31T06:22:24.728Z,1002.76
2018-01-31T06:23:24.729Z,1002.69
2018-01-31T06:24:24.736Z,1002.75
2018-01-31T06:25:24.737Z,1002.68
2018-01-31T06:26:24.741Z,1002.71
2018-01-31T06:27:24.747Z,1002.68
2018-01-31T06:28:24.746Z,1002.65
2018-01-31T06:29:24.747Z,1002.58
2018-01-31T06:30:24.751Z,1002.46
2018-01-31T06:31:24.787Z,1002.51
2018-01-31T06:32:24.761Z,1002.49
2018-01-31T06:33:24.760Z,1002.53
2018-01-31T06:34:24.766Z,1002.43
2018-01-31T06:35:24.766Z,1002.44
2018-01-31T06:36:24.772Z,1002.48
2018-01-31T06:37:24.776Z,1002.40
2018-01-31T06:38:24.786Z,1002.34
2018-01-31T06:39:24.781Z,1002.27
2018-01-31T06:40:24.787Z,1002.18
2018-01-31T06:41:24.791Z,1002.16
2018-01-31T06:42:24.795Z,1002.22
2018-01-31T06:43:24.796Z,1002.14
2018-01-31T06:44:24.796Z,1002.11
2018-01-31T06:45:24.804Z,1002.20
2018-01-31T06:46:24.804Z,1002.09
2018-01-31T06:47:24.810Z,1002.12
2018-01-31T06:48:24.809Z,1002.15
2018-01-31T06:49:24.817Z,1002.02
2018-01-31T06:50:24.819Z,1002.08
2018-01-31T06:51:24.823Z,1002.00
2018-01-31T06:52:24.826Z,1002.05
2018-01-31T06:53:24.824Z,1002.07
2018-01-31T06:54:24.836Z,1002.08
2018-01-31T06:55:24.835Z,1001.99
2018-01-31T06:56:24.837Z,1002.02
2018-01-31T06:57:24.839Z,1002.04
2018-01-31T06:58:24.843Z,1001.96
2018-01-31T06:59:24.850Z,1001.99
2018-01-31T07:00:24.851Z,1001.87
2018-01-31T07:01:24.857Z,1001.89
2018-01-31T07:02:24.863Z,1001.96
2018-01-31T07:03:24.862Z,1001.80
2018-01-31T07:04:24.863Z,1001.88
2018-01-31T07:05:24.872Z,1001.82
2018-01-31T07:06:24.923Z,1001.84
2018-01-31T07:07:24.877Z,1001.82
2018-01-31T07:08:24.878Z,1001.80
2018-01-31T07:09:24.886Z,1001.75
2018-01-31T07:10:24.887Z,1001.80
2018-01-31T07:11:24.892Z,1001.70
2018-01-31T07:12:24.898Z,1001.75
2018-01-31T07:13:24.901Z,1001.73
2018-01-31T07:14:24.903Z,1001.71
2018-01-31T07:15:24.909Z,1001.74
2018-01-31T07:16:24.910Z,1001.64
2018-01-31T07:17:24.926Z,1001.66
2018-01-31T07:18:24.916Z,1001.72
2018-01-31T07:19:24.916Z,1001.75
2018-01-31T07:20:24.924Z,1001.69
2018-01-31T07:21:24.924Z,1001.63
2018-01-31T07:22:24.931Z,1001.67
2018-01-31T07:23:24.934Z,1001.66
2018-01-31T07:24:24.938Z,1001.50
2018-01-31T07:25:24.940Z,1001.43
2018-01-31T07:26:24.944Z,1001.50
2018-01-31T07:27:24.983Z,1001.46
2018-01-31T07:28:24.953Z,1001.43
2018-01-31T07:29:24.952Z,1001.39
2018-01-31T07:30:24.954Z,1001.45
2018-01-31T07:31:24.962Z,1001.42
2018-01-31T07:32:24.960Z,1001.38
2018-01-31T07:33:24.969Z,1001.36
2018-01-31T07:34:24.968Z,1001.39
2018-01-31T07:35:24.976Z,1001.33
2018-01-31T07:36:24.977Z,1001.33
2018-01-31T07:37:24.984Z,1001.32
2018-01-31T07:38:24.984Z,1001.28
2018-01-31T07:39:24.990Z,1001.28
2018-01-31T07:40:24.989Z,1001.26
2018-01-31T07:41:25.020Z,1001.18
2018-01-31T07:42:24.997Z,1001.19
2018-01-31T07:43:25.005Z,1001.22
2018-01-31T07:44:25.005Z,1001.21
2018-01-31T07:45:25.019Z,1001.18
2018-01-31T07:46:25.018Z,1001.14
2018-01-31T07:47:25.016Z,1001.05
2018-01-31T07:48:25.019Z,1001.08
2018-01-31T07:49:25.023Z,1001.19
2018-01-31T07:50:25.028Z,1001.21
2018-01-31T07:51:25.039Z,1001.11
2018-01-31T07:52:25.034Z,1001.18
2018-01-31T07:53:25.040Z,1000.98
2018-01-31T07:54:25.043Z,1001.01
2018-01-31T07:55:25.044Z,1001.04
2018-01-31T07:56:25.050Z,1000.98
2018-01-31T07:57:25.054Z,1001.00
2018-01-31T07:58:25.059Z,1000.98
2018-01-31T07:59:25.061Z,1000.96
2018-01-31T08:00:25.061Z,1000.96
2018-01-31T08:01:25.065Z,1000.89
2018-01-31T08:02:25.069Z,1000.96
2018-01-31T08:03:25.075Z,1000.87
2018-01-31T08:04:25.104Z,1000.94
2018-01-31T08:05:25.079Z,1000.85
2018-01-31T08:06:25.082Z,1000.82
2018-01-31T08:07:25.088Z,1000.87
2018-01-31T08:08:25.091Z,1000.71
2018-01-31T08:09:25.097Z,1000.74
2018-01-31T08:10:25.099Z,1000.77
2018-01-31T08:11:25.104Z,1000.73
2018-01-31T08:12:25.105Z,1000.73
2018-01-31T08:13:25.111Z,1000.75
2018-01-31T08:14:25.113Z,1000.78
2018-01-31T08:15:25.118Z,1000.78
2018-01-31T08:16:25.128Z,1000.80
2018-01-31T08:17:25.129Z,1000.81
2018-01-31T08:18:25.130Z,1000.75
2018-01-31T08:19:25.136Z,1000.77
2018-01-31T08:20:25.140Z,1000.70
2018-01-31T08:21:25.137Z,1000.77
2018-01-31T08:22:25.142Z,1000.69
2018-01-31T08:23:25.148Z,1000.70
2018-01-31T08:24:25.153Z,1000.62
2018-01-31T08:25:25.151Z,1000.61
2018-01-31T08:26:25.154Z,1000.50
2018-01-31T08:27:25.161Z,1000.49
2018-01-31T08:28:25.182Z,1000.43
2018-01-31T08:29:25.165Z,1000.50
2018-01-31T08:30:25.175Z,1000.49
2018-01-31T08:31:25.168Z,1000.54
2018-01-31T08:32:25.179Z,1000.57
2018-01-31T08:33:25.180Z,1000.54
2018-01-31T08:34:25.185Z,1000.47
2018-01-31T08:35:25.187Z,1000.60
2018-01-31T08:36:25.194Z,1000.64
2018-01-31T08:37:25.201Z,1000.54
2018-01-31T08:38:25.200Z,1000.51
2018-01-31T08:39:25.199Z,1000.50
2018-01-31T08:40:25.210Z,1000.46
2018-01-31T08:41:25.206Z,1000.43
2018-01-31T08:42:25.215Z,1000.45
2018-01-31T08:43:25.217Z,1000.51
2018-01-31T08:44:25.220Z,1000.46
2018-01-31T08:45:25.226Z,1000.35
2018-01-31T08:46:25.227Z,1000.37
2018-01-31T08:47:25.234Z,1000.35
2018-01-31T08:48:25.234Z,1000.30
2018-01-31T08:49:25.244Z,1000.27
2018-01-31T08:50:25.270Z,1000.30
2018-01-31T08:51:25.248Z,1000.30
2018-01-31T08:52:25.248Z,1000.23
2018-01-31T08:53:25.256Z,1000.24
2018-01-31T08:54:25.257Z,1000.28
2018-01-31T08:55:25.263Z,1000.18
2018-01-31T08:56:25.264Z,1000.10
2018-01-31T08:57:25.271Z,1000.06
2018-01-31T08:58:25.269Z,1000.11
2018-01-31T08:59:25.276Z,1000.11
2018-01-31T09:00:25.280Z,1000.14
2018-01-31T09:01:25.285Z,1000.02
2018-01-31T09:02:25.283Z,1000.06
2018-01-31T09:03:25.292Z,1000.09
2018-01-31T09:04:25.302Z,1000.11
2018-01-31T09:05:25.292Z,1000.12
2018-01-31T09:06:25.298Z,1000.02
2018-01-31T09:07:25.344Z,1000.04
2018-01-31T09:08:25.312Z,1000.00
2018-01-31T09:09:25.311Z,1000.05
2018-01-31T09:10:25.313Z,1000.08
2018-01-31T09:11:25.321Z,1000.02
2018-01-31T09:12:25.327Z,1000.05
2018-01-31T09:13:25.331Z,1000.10
2018-01-31T09:14:25.329Z,1000.03
2018-01-31T09:15:25.384Z,1000.05
2018-01-31T09:16:25.337Z,1000.01
2018-01-31T09:17:25.345Z,999.98
2018-01-31T09:18:25.347Z,999.98
2018-01-31T09:19:25.349Z,999.95
2018-01-31T09:20:25.352Z,999.97
2018-01-31T09:21:25.360Z,999.87
2018-01-31T09:22:25.363Z,999.90
2018-01-31T09:23:25.363Z,999.86
2018-01-31T09:24:25.372Z,999.90
2018-01-31T09:25:25.371Z,999.78
2018-01-31T09:26:25.377Z,999.84
2018-01-31T09:27:25.378Z,999.84
2018-01-31T09:28:25.383Z,999.81
2018-01-31T09:29:25.387Z,999.79
2018-01-31T09:30:25.389Z,999.75
2018-01-31T09:31:25.394Z,999.76
2018-01-31T09:32:25.400Z,999.75
2018-01-31T09:33:25.402Z,999.72
2018-01-31T09:34:25.407Z,999.76
2018-01-31T09:35:25.408Z,999.71
2018-01-31T09:36:25.417Z,999.64
2018-01-31T09:37:25.417Z,999.67
2018-01-31T09:38:25.431Z,999.61
2018-01-31T09:39:25.426Z,999.63
2018-01-31T09:40:25.428Z,999.58
2018-01-31T09:41:25.437Z,999.50
2018-01-31T09:42:25.438Z,999.48
2018-01-31T09:43:25.445Z,999.42
2018-01-31T09:44:25.444Z,999.44
2018-01-31T09:45:25.451Z,999.50
2018-01-31T09:46:25.451Z,999.45
2018-01-31T09:47:25.457Z,999.44
2018-01-31T09:48:25.457Z,999.44
2018-01-31T09:49:25.466Z,999.37
2018-01-31T09:50:25.466Z,999.31
2018-01-31T09:51:25.475Z,999.37
2018-01-31T09:52:27.009Z,999.26
2018-01-31T09:53:25.483Z,999.22
2018-01-31T09:54:25.480Z,999.24
2018-01-31T09:55:25.489Z,999.25
2018-01-31T09:56:25.494Z,999.16
2018-01-31T09:57:25.499Z,999.15
2018-01-31T09:58:25.493Z,999.24
2018-01-31T09:59:25.501Z,999.17
2018-01-31T10:00:25.508Z,999.18
2018-01-31T10:01:25.509Z,999.06
2018-01-31T10:02:25.510Z,999.15
2018-01-31T10:03:25.530Z,999.14
2018-01-31T10:04:25.521Z,999.24
2018-01-31T10:05:25.521Z,999.13
2018-01-31T10:06:25.525Z,999.07
2018-01-31T10:07:25.532Z,999.08
2018-01-31T10:08:25.551Z,999.03
2018-01-31T10:09:25.537Z,999.04
2018-01-31T10:10:25.539Z,998.97
2018-01-31T10:11:25.548Z,998.93
2018-01-31T10:12:25.547Z,998.96
2018-01-31T10:13:25.553Z,998.84
2018-01-31T10:14:25.559Z,998.93
2018-01-31T10:15:25.560Z,998.83
2018-01-31T10:16:25.573Z,998.87
2018-01-31T10:17:25.567Z,998.90
2018-01-31T10:18:25.572Z,998.77
2018-01-31T10:19:25.572Z,998.79
2018-01-31T10:20:25.575Z,998.75
2018-01-31T10:21:25.584Z,998.67
2018-01-31T10:22:25.589Z,998.67
2018-01-31T10:23:25.586Z,998.71
2018-01-31T10:24:25.593Z,998.67
2018-01-31T10:25:25.597Z,998.69
2018-01-31T10:26:25.605Z,998.65
2018-01-31T10:27:25.601Z,998.66
2018-01-31T10:28:25.604Z,998.63
2018-01-31T10:29:25.613Z,998.58
2018-01-31T10:30:25.618Z,998.62
2018-01-31T10:31:25.616Z,998.54
2018-01-31T10:32:25.622Z,998.61
2018-01-31T10:33:25.628Z,998.58
2018-01-31T10:34:25.632Z,998.46
2018-01-31T10:35:25.631Z,998.50
2018-01-31T10:36:25.635Z,998.53
2018-01-31T10:37:25.638Z,998.47
2018-01-31T10:38:25.647Z,998.46
2018-01-31T10:39:25.649Z,998.45
2018-01-31T10:40:25.650Z,998.49
2018-01-31T10:41:25.657Z,998.54
2018-01-31T10:42:25.656Z,998.38
2018-01-31T10:43:25.666Z,998.34
2018-01-31T10:44:25.668Z,998.35
2018-01-31T10:45:25.668Z,998.36
2018-01-31T10:46:25.676Z,998.36
2018-01-31T10:47:25.680Z,998.31
2018-01-31T10:48:25.684Z,998.34
2018-01-31T10:49:25.684Z,998.29
2018-01-31T10:50:25.687Z,998.21
2018-01-31T10:51:25.697Z,998.10
2018-01-31T10:52:25.700Z,998.19
2018-01-31T10:53:25.703Z,998.24
2018-01-31T10:57:29.192Z,998.01
2018-01-31T10:58:25.716Z,998.04
2018-01-31T10:59:25.723Z,998.01
2018-01-31T11:00:25.728Z,998.01
2018-01-31T11:01:25.728Z,997.98
2018-01-31T11:02:25.735Z,997.98
2018-01-31T11:03:25.735Z,997.87
2018-01-31T11:04:25.744Z,997.83
2018-01-31T11:05:25.743Z,997.93
2018-01-31T11:06:25.752Z,997.93
2018-01-31T11:07:25.752Z,997.90
2018-01-31T11:08:25.757Z,997.82
2018-01-31T11:09:25.761Z,997.70
2018-01-31T11:10:25.804Z,997.67
2018-01-31T11:11:25.770Z,997.79
2018-01-31T11:12:25.775Z,997.68
2018-01-31T11:13:25.777Z,997.74
2018-01-31T11:14:25.779Z,997.74
2018-01-31T11:15:25.785Z,997.53
2018-01-31T11:16:25.787Z,997.60
2018-01-31T11:17:25.799Z,997.60
2018-01-31T11:18:25.794Z,997.51
2018-01-31T11:19:25.799Z,997.54
2018-01-31T11:20:25.802Z,997.43
2018-01-31T11:21:25.810Z,997.42
2018-01-31T11:22:25.807Z,997.50
2018-01-31T11:23:25.817Z,997.41
2018-01-31T11:24:25.820Z,997.41
2018-01-31T11:25:25.821Z,997.44
2018-01-31T11:26:25.824Z,997.31
2018-01-31T11:27:25.829Z,997.24
2018-01-31T11:28:25.831Z,997.26
2018-01-31T11:29:25.841Z,997.27
2018-01-31T11:30:25.843Z,997.23
2018-01-31T11:31:25.844Z,997.19
2018-01-31T11:32:25.849Z,997.21
2018-01-31T11:33:25.904Z,997.18
2018-01-31T11:34:25.855Z,997.10
2018-01-31T11:35:25.862Z,997.10
2018-01-31T11:36:25.859Z,997.09
2018-01-31T11:37:25.869Z,996.94
2018-01-31T11:38:25.868Z,997.09
2018-01-31T11:39:25.879Z,997.01
2018-01-31T11:40:25.883Z,996.94
2018-01-31T11:41:25.883Z,996.93
2018-01-31T11:42:25.891Z,997.00
2018-01-31T11:43:25.892Z,997.00
2018-01-31T11:44:25.891Z,996.78
2018-01-31T11:45:25.897Z,996.91
2018-01-31T11:46:25.900Z,996.87
2018-01-31T11:47:25.909Z,996.96
2018-01-31T11:48:25.908Z,996.95
2018-01-31T11:49:25.918Z,996.87
2018-01-31T11:50:25.921Z,996.80
2018-01-31T11:51:25.919Z,996.80
2018-01-31T11:52:25.930Z,996.80
2018-01-31T11:53:25.931Z,996.72
2018-01-31T11:54:25.934Z,996.67
2018-01-31T11:55:25.937Z,996.65
2018-01-31T11:56:25.947Z,996.64
2018-01-31T11:57:25.946Z,996.62
2018-01-31T11:58:25.953Z,996.62
2018-01-31T11:59:25.952Z,996.58
2018-01-31T12:00:25.958Z,996.47
2018-01-31T12:01:25.960Z,996.53
2018-01-31T12:02:25.963Z,996.54
2018-01-31T12:03:25.966Z,996.46
2018-01-31T12:04:25.970Z,996.55
2018-01-31T12:05:25.976Z,996.47
2018-01-31T12:06:25.979Z,996.60
2018-01-31T12:07:25.982Z,996.41
2018-01-31T12:08:25.984Z,996.39
2018-01-31T12:09:25.991Z,996.44
2018-01-31T12:10:25.996Z,996.52
2018-01-31T12:11:25.994Z,996.52
2018-01-31T12:12:26.004Z,996.65
2018-01-31T12:13:26.008Z,996.57
2018-01-31T12:14:26.010Z,996.48
2018-01-31T12:15:26.010Z,996.55
2018-01-31T12:16:26.016Z,996.54
2018-01-31T12:17:26.021Z,996.50
2018-01-31T12:18:26.019Z,996.54
2018-01-31T12:19:26.027Z,996.45
2018-01-31T12:20:26.031Z,996.57
2018-01-31T12:21:26.033Z,996.60
2018-01-31T12:22:26.044Z,996.57
2018-01-31T12:23:26.037Z,996.73
2018-01-31T12:24:26.045Z,996.85
2018-01-31T12:25:26.049Z,996.99
2018-01-31T12:26:26.052Z,996.77
2018-01-31T12:27:26.052Z,996.67
2018-01-31T12:28:26.059Z,996.68
2018-01-31T12:29:26.072Z,996.84
2018-01-31T12:30:26.060Z,996.96
2018-01-31T12:31:26.066Z,996.63
2018-01-31T12:32:26.072Z,996.76
2018-01-31T12:33:26.072Z,996.69
2018-01-31T12:34:26.093Z,996.77
2018-01-31T12:35:26.077Z,996.71
2018-01-31T12:36:26.086Z,996.71
2018-01-31T12:37:26.084Z,996.66
2018-01-31T12:38:26.086Z,996.64
2018-01-31T12:39:26.092Z,996.58
2018-01-31T12:40:26.097Z,996.65
2018-01-31T12:41:26.095Z,996.60
2018-01-31T12:42:26.097Z,996.54
2018-01-31T12:43:26.103Z,996.49
2018-01-31T12:44:26.107Z,996.60
2018-01-31T12:45:26.111Z,996.59
2018-01-31T12:46:26.107Z,996.63
2018-01-31T12:47:26.115Z,996.54
2018-01-31T12:48:26.114Z,996.57
2018-01-31T12:49:26.118Z,996.48
2018-01-31T12:50:26.117Z,996.52
2018-01-31T12:51:26.127Z,996.47
2018-01-31T12:52:26.129Z,996.46
2018-01-31T12:53:26.140Z,996.36
2018-01-31T12:54:26.131Z,996.44
2018-01-31T12:55:26.131Z,996.39
2018-01-31T12:56:26.134Z,996.38
2018-01-31T12:57:26.142Z,996.42
2018-01-31T12:58:26.140Z,996.43
2018-01-31T12:59:26.141Z,996.44
2018-01-31T13:00:26.144Z,996.36
2018-01-31T13:01:26.158Z,996.23
2018-01-31T13:02:26.151Z,996.37
2018-01-31T13:03:26.152Z,996.49
2018-01-31T13:04:26.154Z,996.40
2018-01-31T13:05:26.160Z,996.38
2018-01-31T13:06:26.161Z,996.42
2018-01-31T13:07:26.164Z,996.30
2018-01-31T13:08:26.169Z,996.27
2018-01-31T13:09:26.161Z,996.34
2018-01-31T13:10:26.170Z,996.19
2018-01-31T13:11:26.172Z,996.32
2018-01-31T13:12:26.178Z,996.28
2018-01-31T13:13:26.177Z,996.26
2018-01-31T13:14:26.181Z,996.20
2018-01-31T13:15:26.180Z,996.22
2018-01-31T13:16:26.187Z,996.15
2018-01-31T13:17:26.187Z,996.17
2018-01-31T13:18:26.192Z,996.10
2018-01-31T13:19:26.192Z,996.07
2018-01-31T13:20:26.200Z,996.05
2018-01-31T13:21:26.215Z,996.05
2018-01-31T13:22:26.202Z,996.06
2018-01-31T13:23:26.201Z,996.02
2018-01-31T13:24:26.205Z,995.93
2018-01-31T13:25:26.210Z,995.88
2018-01-31T13:26:26.208Z,995.87
2018-01-31T13:27:26.215Z,995.83
2018-01-31T13:28:26.211Z,995.83
2018-01-31T13:29:26.222Z,995.85
2018-01-31T13:30:26.217Z,995.78
2018-01-31T13:31:26.227Z,995.78
2018-01-31T13:32:26.225Z,995.69
2018-01-31T13:33:26.232Z,995.70
2018-01-31T13:34:26.232Z,995.63
2018-01-31T13:35:26.238Z,995.69
2018-01-31T13:36:26.235Z,995.67
2018-01-31T13:37:26.240Z,995.61
2018-01-31T13:38:26.249Z,995.62
2018-01-31T13:39:26.243Z,995.48
2018-01-31T13:40:26.246Z,995.52
2018-01-31T13:41:26.253Z,995.40
2018-01-31T13:42:26.253Z,995.43
2018-01-31T13:43:26.257Z,995.41
2018-01-31T13:44:26.259Z,995.42
2018-01-31T13:45:26.265Z,995.39
2018-01-31T13:46:26.263Z,995.41
2018-01-31T13:47:26.268Z,995.40
2018-01-31T13:48:26.272Z,995.35
2018-01-31T13:49:26.272Z,995.31
2018-01-31T13:50:26.275Z,995.28
2018-01-31T13:51:26.280Z,995.23
2018-01-31T13:52:26.284Z,995.22
2018-01-31T13:53:26.287Z,995.18
2018-01-31T13:54:26.286Z,995.19
2018-01-31T13:55:26.292Z,995.14
2018-01-31T13:56:26.297Z,995.16
2018-01-31T13:57:26.294Z,995.09
2018-01-31T13:58:26.302Z,995.06
2018-01-31T13:59:26.303Z,995.01
2018-01-31T14:00:26.307Z,994.95
2018-01-31T14:01:26.341Z,995.01
2018-01-31T14:02:26.315Z,994.98
2018-01-31T14:03:26.317Z,994.94
2018-01-31T14:04:26.315Z,994.94
2018-01-31T14:05:26.322Z,994.86
2018-01-31T14:06:26.322Z,994.91
2018-01-31T14:07:26.323Z,994.90
2018-01-31T14:08:26.328Z,994.93